createdAt,value
2018-08-30T00:01:32.187Z,15.50
2018-08-30T00:04:00.492Z,15.50
2018-08-30T00:06:28.788Z,15.50
2018-08-30T00:08:57.145Z,15.50
2018-08-30T00:11:25.415Z,15.50
2018-08-30T00:13:53.816Z,15.50
2018-08-30T00:16:22.084Z,15.50
2018-08-30T00:18:50.321Z,15.60
2018-08-30T00:21:18.603Z,15.50
2018-08-30T00:23:46.922Z,15.60
2018-08-30T00:26:15.870Z,15.60
2018-08-30T00:28:44.160Z,15.60
2018-08-30T00:31:12.473Z,15.60
2018-08-30T00:33:41.903Z,15.60
2018-08-30T00:36:10.143Z,15.60
2018-08-30T00:38:38.671Z,15.60
2018-08-30T00:41:07.016Z,15.60
2018-08-30T00:43:36.604Z,15.60
2018-08-30T00:46:05.089Z,15.60
2018-08-30T00:48:33.463Z,15.60
2018-08-30T00:51:01.775Z,15.70
2018-08-30T00:53:30.146Z,15.70
2018-08-30T00:55:58.374Z,15.70
2018-08-30T00:58:26.634Z,15.70
2018-08-30T01:00:54.883Z,15.70
2018-08-30T01:03:23.841Z,15.70
2018-08-30T01:05:52.078Z,15.70
2018-08-30T01:08:20.325Z,15.70
2018-08-30T01:10:48.644Z,15.70
2018-08-30T01:13:16.958Z,15.70
2018-08-30T01:15:45.281Z,15.70
2018-08-30T01:18:13.529Z,15.70
2018-08-30T01:20:41.814Z,15.70
2018-08-30T01:23:10.306Z,15.70
2018-08-30T01:25:38.868Z,15.60
2018-08-30T01:28:08.168Z,15.60
2018-08-30T01:30:36.425Z,15.60
2018-08-30T01:33:04.765Z,15.60
2018-08-30T01:35:32.976Z,15.50
2018-08-30T01:38:01.223Z,15.60
2018-08-30T01:40:29.523Z,15.50
2018-08-30T01:42:57.938Z,15.60
2018-08-30T01:45:26.224Z,15.50
2018-08-30T01:47:55.233Z,15.50
2018-08-30T01:50:23.464Z,15.50
2018-08-30T01:52:51.865Z,15.50
2018-08-30T01:55:20.174Z,15.50
2018-08-30T01:57:48.481Z,15.50
2018-08-30T02:00:16.714Z,15.40
2018-08-30T02:02:45.096Z,15.40
2018-08-30T02:05:13.377Z,15.50
2018-08-30T02:07:41.638Z,15.40
2018-08-30T02:10:09.921Z,15.40
2018-08-30T02:12:38.267Z,15.40
2018-08-30T02:15:06.680Z,15.40
2018-08-30T02:17:35.051Z,15.40
2018-08-30T02:20:03.280Z,15.50
2018-08-30T02:22:31.548Z,15.50
2018-08-30T02:25:01.023Z,15.40
2018-08-30T02:27:29.284Z,15.40
2018-08-30T02:29:57.567Z,15.40
2018-08-30T02:32:25.811Z,15.50
2018-08-30T02:34:54.141Z,15.40
2018-08-30T02:37:22.364Z,15.40
2018-08-30T02:39:50.634Z,15.40
2018-08-30T02:42:18.879Z,15.40
2018-08-30T02:44:47.145Z,15.40
2018-08-30T02:47:15.402Z,15.40
2018-08-30T02:49:44.282Z,15.40
2018-08-30T02:52:12.559Z,15.40
2018-08-30T02:54:40.921Z,15.30
2018-08-30T02:57:09.164Z,15.30
2018-08-30T02:59:37.466Z,15.30
2018-08-30T03:02:05.954Z,15.30
2018-08-30T03:04:34.231Z,15.30
2018-08-30T03:07:02.504Z,15.30
2018-08-30T03:09:30.779Z,15.30
2018-08-30T03:11:59.042Z,15.30
2018-08-30T03:14:27.352Z,15.20
2018-08-30T03:16:55.694Z,15.20
2018-08-30T03:19:23.918Z,15.20
2018-08-30T03:21:52.198Z,15.20
2018-08-30T03:24:20.635Z,15.20
2018-08-30T03:26:48.916Z,15.20
2018-08-30T03:29:17.256Z,15.20
2018-08-30T03:31:45.495Z,15.20
2018-08-30T03:34:13.946Z,15.20
2018-08-30T03:36:42.189Z,15.20
2018-08-30T03:39:10.706Z,15.20
2018-08-30T03:41:39.054Z,15.20
2018-08-30T03:44:07.434Z,15.10
2018-08-30T03:46:35.711Z,15.10
2018-08-30T03:49:03.998Z,15.10
2018-08-30T03:51:32.368Z,15.10
2018-08-30T03:54:00.808Z,15.10
2018-08-30T03:56:29.118Z,15.10
2018-08-30T03:58:57.357Z,15.10
2018-08-30T04:01:25.670Z,15.10
2018-08-30T04:03:54.031Z,15.10
2018-08-30T04:06:22.282Z,15.00
2018-08-30T04:08:50.528Z,15.00
2018-08-30T04:11:18.817Z,15.00
2018-08-30T04:13:47.177Z,15.00
2018-08-30T04:16:15.500Z,15.00
2018-08-30T04:18:43.740Z,15.00
2018-08-30T04:21:12.029Z,14.90
2018-08-30T04:23:44.360Z,14.90
2018-08-30T04:26:12.594Z,14.90
2018-08-30T04:28:40.873Z,14.90
2018-08-30T04:31:09.088Z,14.90
2018-08-30T04:33:37.450Z,14.90
2018-08-30T04:36:05.899Z,14.90
2018-08-30T04:38:34.189Z,14.80
2018-08-30T04:41:03.563Z,14.80
2018-08-30T04:43:32.063Z,14.80
2018-08-30T04:46:01.640Z,14.80
2018-08-30T04:48:29.883Z,14.80
2018-08-30T04:50:58.214Z,14.80
2018-08-30T04:53:28.226Z,14.90
2018-08-30T04:55:56.467Z,14.90
2018-08-30T04:58:24.784Z,14.90
2018-08-30T05:00:53.086Z,14.90
2018-08-30T05:03:21.538Z,14.90
2018-08-30T05:05:49.806Z,15.00
2018-08-30T05:08:18.055Z,15.00
2018-08-30T05:10:46.393Z,15.00
2018-08-30T05:13:14.713Z,15.00
2018-08-30T05:15:42.964Z,15.00
2018-08-30T05:18:11.197Z,15.10
2018-08-30T05:20:39.417Z,15.10
2018-08-30T05:23:07.847Z,15.10
2018-08-30T05:25:36.310Z,15.10
2018-08-30T05:28:04.514Z,15.10
2018-08-30T05:30:32.800Z,15.10
2018-08-30T05:33:01.189Z,15.10
2018-08-30T05:35:29.426Z,15.10
2018-08-30T05:37:57.736Z,15.10
2018-08-30T05:40:26.003Z,15.10
2018-08-30T05:42:55.278Z,15.10
2018-08-30T05:45:23.554Z,15.20
2018-08-30T05:47:51.858Z,15.20
2018-08-30T05:50:20.135Z,15.20
2018-08-30T05:52:48.395Z,15.20
2018-08-30T05:55:16.641Z,15.20
2018-08-30T05:57:44.889Z,15.20
2018-08-30T06:00:13.113Z,15.20
2018-08-30T06:02:41.352Z,15.20
2018-08-30T06:05:09.653Z,15.20
2018-08-30T06:07:37.877Z,15.20
2018-08-30T06:10:06.277Z,15.20
2018-08-30T06:12:34.576Z,15.20
2018-08-30T06:15:02.908Z,15.30
2018-08-30T06:17:31.996Z,15.30
2018-08-30T06:20:00.270Z,15.40
2018-08-30T06:22:28.538Z,15.40
2018-08-30T06:24:56.794Z,15.40
2018-08-30T06:27:25.026Z,15.40
2018-08-30T06:29:53.262Z,15.50
2018-08-30T06:32:21.571Z,15.50
2018-08-30T06:34:49.833Z,15.50
2018-08-30T06:37:18.031Z,15.50
2018-08-30T06:39:46.311Z,15.60
2018-08-30T06:42:14.581Z,15.60
2018-08-30T06:44:43.004Z,15.60
2018-08-30T06:47:11.246Z,15.60
2018-08-30T06:49:39.536Z,15.60
2018-08-30T06:52:07.861Z,15.60
2018-08-30T06:54:36.111Z,15.70
2018-08-30T06:57:04.400Z,15.60
2018-08-30T06:59:32.687Z,15.70
2018-08-30T07:02:01.001Z,15.70
2018-08-30T07:04:29.414Z,15.70
2018-08-30T07:06:57.633Z,15.60
2018-08-30T07:09:25.883Z,15.70
2018-08-30T07:11:54.145Z,15.70
2018-08-30T07:15:25.697Z,15.70
2018-08-30T07:17:54.035Z,15.70
2018-08-30T07:20:22.360Z,15.70
2018-08-30T07:22:50.780Z,15.70
2018-08-30T07:25:19.063Z,15.70
2018-08-30T07:27:47.498Z,15.70
2018-08-30T07:30:15.785Z,15.70
2018-08-30T07:32:44.339Z,15.70
2018-08-30T07:35:12.676Z,15.70
2018-08-30T07:37:40.917Z,15.80
2018-08-30T07:40:09.225Z,15.90
2018-08-30T07:42:37.543Z,16.00
2018-08-30T07:45:05.875Z,16.10
2018-08-30T07:47:34.202Z,16.20
2018-08-30T07:50:02.524Z,16.30
2018-08-30T07:52:30.754Z,16.40
2018-08-30T07:54:59.027Z,16.50
2018-08-30T07:57:27.345Z,16.60
2018-08-30T07:59:55.654Z,16.60
2018-08-30T08:02:24.149Z,16.80
2018-08-30T08:04:54.623Z,17.00
2018-08-30T08:07:22.883Z,17.10
2018-08-30T08:09:51.123Z,17.00
2018-08-30T08:12:19.368Z,16.90
2018-08-30T08:14:47.725Z,16.80
2018-08-30T08:17:15.972Z,16.80
2018-08-30T08:19:44.233Z,16.80
2018-08-30T08:22:12.507Z,16.70
2018-08-30T08:24:41.893Z,16.70
2018-08-30T08:27:16.513Z,16.80
2018-08-30T08:29:44.835Z,16.70
2018-08-30T08:32:13.162Z,16.60
2018-08-30T08:34:41.517Z,16.60
2018-08-30T08:37:10.017Z,16.60
2018-08-30T08:39:38.583Z,16.60
2018-08-30T08:42:06.842Z,16.60
2018-08-30T08:44:35.298Z,16.60
2018-08-30T08:47:03.623Z,16.70
2018-08-30T08:49:31.887Z,16.70
2018-08-30T08:52:00.139Z,16.80
2018-08-30T08:54:28.499Z,16.80
2018-08-30T08:56:56.897Z,16.80
2018-08-30T08:59:25.172Z,16.80
2018-08-30T09:01:53.611Z,16.80
2018-08-30T09:04:22.017Z,16.90
2018-08-30T09:06:50.339Z,16.90
2018-08-30T09:09:18.578Z,17.00
2018-08-30T09:11:46.785Z,16.90
2018-08-30T09:14:15.163Z,16.80
2018-08-30T09:16:43.503Z,16.80
2018-08-30T09:19:11.752Z,16.70
2018-08-30T09:21:39.991Z,16.70
2018-08-30T09:24:08.479Z,16.80
2018-08-30T09:26:36.769Z,16.80
2018-08-30T09:29:05.116Z,16.90
2018-08-30T09:31:33.351Z,16.90
2018-08-30T09:34:02.051Z,16.90
2018-08-30T09:36:30.361Z,17.00
2018-08-30T09:38:58.688Z,16.90
2018-08-30T09:41:27.045Z,17.00
2018-08-30T09:43:55.501Z,17.10
2018-08-30T09:46:23.784Z,17.10
2018-08-30T09:48:52.064Z,17.20
2018-08-30T09:51:20.524Z,17.30
2018-08-30T09:53:48.966Z,17.30
2018-08-30T09:56:17.218Z,17.50
2018-08-30T09:58:45.497Z,17.50
2018-08-30T10:01:19.276Z,17.60
2018-08-30T10:03:47.595Z,17.70
2018-08-30T10:06:15.862Z,17.60
2018-08-30T10:08:44.148Z,17.50
2018-08-30T10:11:12.459Z,17.60
2018-08-30T10:13:40.878Z,17.60
2018-08-30T10:16:09.131Z,17.60
2018-08-30T10:18:37.489Z,17.60
2018-08-30T10:21:05.766Z,17.80
2018-08-30T10:23:34.225Z,17.70
2018-08-30T10:26:02.439Z,17.70
2018-08-30T10:28:31.017Z,17.80
2018-08-30T10:30:59.354Z,17.80
2018-08-30T10:33:27.680Z,18.00
2018-08-30T10:35:55.920Z,18.10
2018-08-30T10:38:24.144Z,18.00
2018-08-30T10:40:53.178Z,17.90
2018-08-30T10:43:22.517Z,17.80
2018-08-30T10:45:50.894Z,17.70
2018-08-30T10:48:19.206Z,17.60
2018-08-30T10:50:47.648Z,17.50
2018-08-30T10:53:15.992Z,17.50
2018-08-30T10:55:44.246Z,17.60
2018-08-30T10:58:12.524Z,17.70
2018-08-30T11:00:40.927Z,17.80
2018-08-30T11:03:09.279Z,18.00
2018-08-30T11:05:38.332Z,17.90
2018-08-30T11:08:06.683Z,17.90
2018-08-30T11:10:35.007Z,17.90
2018-08-30T11:13:03.692Z,18.00
2018-08-30T11:15:31.811Z,18.00
2018-08-30T11:18:00.078Z,18.00
2018-08-30T11:20:28.360Z,18.10
2018-08-30T11:22:56.728Z,18.30
2018-08-30T11:25:24.990Z,18.20
2018-08-30T11:27:53.380Z,18.20
2018-08-30T11:30:21.664Z,18.20
2018-08-30T11:32:50.026Z,18.30
2018-08-30T11:35:18.371Z,18.40
2018-08-30T11:37:46.693Z,18.30
2018-08-30T11:40:15.098Z,18.40
2018-08-30T11:42:43.612Z,18.40
2018-08-30T11:45:11.931Z,18.40
2018-08-30T11:47:40.796Z,18.30
2018-08-30T11:50:09.085Z,18.40
2018-08-30T11:52:37.441Z,18.40
2018-08-30T11:55:06.123Z,18.40
2018-08-30T11:57:34.554Z,18.30
2018-08-30T12:00:02.887Z,18.30
2018-08-30T12:02:34.484Z,18.30
2018-08-30T12:05:03.475Z,18.40
2018-08-30T12:07:31.720Z,18.60
2018-08-30T12:09:59.987Z,18.70
2018-08-30T12:12:28.277Z,18.60
2018-08-30T12:14:56.695Z,18.60
2018-08-30T12:17:25.394Z,18.60
2018-08-30T12:19:54.445Z,18.40
2018-08-30T12:22:23.016Z,18.50
2018-08-30T12:24:51.380Z,18.40
2018-08-30T12:27:20.295Z,18.50
2018-08-30T12:29:48.637Z,18.40
2018-08-30T12:32:16.898Z,18.40
2018-08-30T12:35:17.321Z,18.40
2018-08-30T12:37:45.617Z,18.50
2018-08-30T12:40:14.153Z,18.50
2018-08-30T12:42:43.266Z,18.50
2018-08-30T12:45:11.587Z,18.70
2018-08-30T12:47:39.845Z,18.60
2018-08-30T12:50:08.554Z,18.60
2018-08-30T12:52:36.816Z,18.60
2018-08-30T12:55:05.398Z,18.30
2018-08-30T12:57:33.643Z,18.20
2018-08-30T13:00:02.071Z,18.20
2018-08-30T13:02:30.544Z,18.30
2018-08-30T13:04:58.812Z,18.30
2018-08-30T13:07:27.330Z,18.30
2018-08-30T13:09:55.906Z,18.30
2018-08-30T13:12:24.210Z,18.30
2018-08-30T13:14:53.693Z,18.30
2018-08-30T13:17:21.852Z,18.40
2018-08-30T13:19:50.419Z,18.40
2018-08-30T13:22:19.108Z,18.30
2018-08-30T13:24:47.391Z,18.20
2018-08-30T13:27:15.669Z,18.30
2018-08-30T13:29:44.206Z,18.30
2018-08-30T13:32:12.427Z,18.40
2018-08-30T13:34:42.159Z,18.50
2018-08-30T13:37:10.889Z,18.40
2018-08-30T13:39:39.590Z,18.40
2018-08-30T13:42:08.078Z,18.50
2018-08-30T13:44:36.549Z,18.60
2018-08-30T13:47:04.836Z,18.60
2018-08-30T13:49:32.955Z,18.50
2018-08-30T13:52:01.643Z,18.50
2018-08-30T13:54:30.091Z,18.60
2018-08-30T13:56:58.254Z,18.60
2018-08-30T13:59:26.705Z,18.60
2018-08-30T14:01:54.712Z,18.70
2018-08-30T14:04:25.285Z,18.60
2018-08-30T14:06:53.796Z,18.50
2018-08-30T14:09:21.910Z,18.30
2018-08-30T14:11:50.294Z,18.30
2018-08-30T14:14:18.667Z,18.40
2018-08-30T14:16:46.744Z,18.40
2018-08-30T14:19:15.250Z,18.30
2018-08-30T14:21:43.439Z,18.30
2018-08-30T14:24:11.955Z,18.40
2018-08-30T14:26:40.484Z,18.40
2018-08-30T14:29:09.027Z,18.50
2018-08-30T14:31:37.311Z,18.50
2018-08-30T14:34:06.058Z,18.40
2018-08-30T14:36:34.327Z,18.30
2018-08-30T14:39:02.620Z,18.40
2018-08-30T14:41:30.942Z,18.40
2018-08-30T14:43:59.284Z,18.50
2018-08-30T14:46:27.611Z,18.40
2018-08-30T14:48:55.964Z,18.50
2018-08-30T14:51:24.332Z,18.40
2018-08-30T14:53:52.787Z,18.40
2018-08-30T14:56:21.050Z,18.40
2018-08-30T14:58:49.436Z,18.50
2018-08-30T15:01:17.604Z,18.40
2018-08-30T15:03:46.115Z,18.30
2018-08-30T15:06:14.405Z,18.40
2018-08-30T15:08:42.763Z,18.60
2018-08-30T15:11:11.090Z,18.60
2018-08-30T15:13:39.304Z,18.50
2018-08-30T15:16:07.960Z,18.40
2018-08-30T15:18:36.185Z,18.40
2018-08-30T15:21:04.506Z,18.30
2018-08-30T15:23:33.159Z,18.30
2018-08-30T15:26:01.232Z,18.20
2018-08-30T15:28:29.697Z,18.20
2018-08-30T15:30:57.992Z,18.10
2018-08-30T15:33:26.458Z,18.00
2018-08-30T15:35:55.145Z,17.90
2018-08-30T15:38:23.485Z,17.90
2018-08-30T15:40:52.056Z,18.00
2018-08-30T15:43:20.408Z,18.00
2018-08-30T15:45:48.650Z,18.10
2018-08-30T15:48:17.085Z,18.10
2018-08-30T15:50:45.370Z,18.10
2018-08-30T15:53:13.719Z,18.00
2018-08-30T15:55:42.205Z,18.00
2018-08-30T15:58:11.540Z,18.00
2018-08-30T16:00:39.892Z,18.00
2018-08-30T16:03:08.413Z,18.00
2018-08-30T16:05:36.795Z,18.00
2018-08-30T16:08:05.090Z,18.00
2018-08-30T16:10:33.419Z,17.90
2018-08-30T16:13:02.012Z,17.90
2018-08-30T16:15:30.182Z,18.00
2018-08-30T16:17:58.467Z,17.90
2018-08-30T16:20:26.711Z,17.80
2018-08-30T16:23:05.217Z,17.70
2018-08-30T16:25:33.918Z,17.50
2018-08-30T16:28:02.317Z,17.40
2018-08-30T16:30:30.674Z,17.40
2018-08-30T16:32:59.178Z,17.40
2018-08-30T16:35:27.752Z,17.40
2018-08-30T16:37:56.371Z,17.60
2018-08-30T16:40:24.638Z,17.50
2018-08-30T16:42:53.345Z,17.50
2018-08-30T16:45:21.567Z,17.50
2018-08-30T16:47:50.023Z,17.40
2018-08-30T16:50:19.040Z,17.40
2018-08-30T16:52:47.412Z,17.40
2018-08-30T16:55:15.810Z,17.40
2018-08-30T16:57:44.214Z,17.40
2018-08-30T17:00:12.573Z,17.40
2018-08-30T17:02:40.812Z,17.30
2018-08-30T17:05:09.234Z,17.20
2018-08-30T17:07:37.512Z,17.10
2018-08-30T17:10:06.092Z,17.10
2018-08-30T17:12:34.429Z,17.10
2018-08-30T17:15:03.184Z,17.00
2018-08-30T17:17:31.545Z,16.90
2018-08-30T17:20:00.165Z,16.90
2018-08-30T17:22:28.475Z,16.80
2018-08-30T17:24:56.966Z,16.90
2018-08-30T17:27:25.214Z,16.90
2018-08-30T17:29:53.486Z,16.80
2018-08-30T17:32:21.768Z,16.80
2018-08-30T17:34:50.246Z,16.80
2018-08-30T17:37:18.545Z,16.80
2018-08-30T17:39:46.852Z,16.80
2018-08-30T17:42:15.153Z,16.90
2018-08-30T17:44:43.692Z,16.90
2018-08-30T17:47:12.151Z,16.90
2018-08-30T17:49:40.584Z,16.90
2018-08-30T17:52:08.873Z,16.80
2018-08-30T17:54:37.151Z,16.80
2018-08-30T17:57:05.761Z,16.70
2018-08-30T17:59:34.433Z,16.60
2018-08-30T18:02:02.810Z,16.60
2018-08-30T18:04:31.443Z,16.50
2018-08-30T18:07:00.078Z,16.50
2018-08-30T18:12:30.775Z,16.40
2018-08-30T18:14:59.195Z,16.30
2018-08-30T18:17:27.472Z,16.30
2018-08-30T18:19:55.703Z,16.20
2018-08-30T18:22:24.035Z,16.30
2018-08-30T18:24:52.515Z,16.30
2018-08-30T18:27:20.787Z,16.30
2018-08-30T18:29:49.043Z,16.30
2018-08-30T18:32:17.513Z,16.30
2018-08-30T18:34:45.957Z,16.30
2018-08-30T18:37:14.332Z,16.30
2018-08-30T18:39:42.642Z,16.30
2018-08-30T18:42:11.047Z,16.30
2018-08-30T18:44:39.530Z,16.20
2018-08-30T18:47:08.047Z,16.20
2018-08-30T18:49:36.500Z,16.20
2018-08-30T18:52:04.731Z,16.20
2018-08-30T18:54:33.017Z,16.30
2018-08-30T18:57:01.402Z,16.20
2018-08-30T18:59:29.683Z,16.20
2018-08-30T19:01:58.151Z,16.10
2018-08-30T19:04:26.522Z,16.10
2018-08-30T19:06:54.885Z,16.10
2018-08-30T19:09:23.151Z,16.10
2018-08-30T19:11:51.767Z,16.10
2018-08-30T19:14:20.298Z,16.00
2018-08-30T19:16:53.979Z,16.00
2018-08-30T19:19:24.111Z,15.90
2018-08-30T19:21:52.406Z,15.80
2018-08-30T19:24:26.195Z,15.70
2018-08-30T19:26:54.622Z,15.70
2018-08-30T19:29:22.936Z,15.70
2018-08-30T19:31:51.198Z,15.70
2018-08-30T19:34:19.686Z,15.70
2018-08-30T19:36:47.915Z,15.60
2018-08-30T19:39:16.264Z,15.60
2018-08-30T19:41:44.600Z,15.60
2018-08-30T19:44:13.030Z,15.60
2018-08-30T19:46:41.325Z,15.60
2018-08-30T19:49:09.946Z,15.60
2018-08-30T19:51:38.199Z,15.50
2018-08-30T19:54:06.475Z,15.50
2018-08-30T19:56:34.790Z,15.50
2018-08-30T19:59:03.173Z,15.50
2018-08-30T20:01:32.136Z,15.50
2018-08-30T20:04:00.481Z,15.50
2018-08-30T20:06:28.743Z,15.50
2018-08-30T20:08:57.019Z,15.50
2018-08-30T20:11:25.356Z,15.50
2018-08-30T20:13:53.838Z,15.40
2018-08-30T20:16:22.150Z,15.40
2018-08-30T20:18:50.387Z,15.40
2018-08-30T20:21:18.664Z,15.40
2018-08-30T20:23:47.142Z,15.40
2018-08-30T20:26:15.400Z,15.30
2018-08-30T20:28:43.725Z,15.30
2018-08-30T20:31:12.014Z,15.20
2018-08-30T20:33:40.455Z,15.20
2018-08-30T20:36:08.709Z,15.20
2018-08-30T20:38:36.990Z,15.20
2018-08-30T20:41:05.836Z,15.20
2018-08-30T20:43:34.106Z,15.20
2018-08-30T20:46:02.441Z,15.10
2018-08-30T20:48:31.023Z,15.00
2018-08-30T20:50:59.521Z,15.00
2018-08-30T20:53:29.111Z,14.90
2018-08-30T20:55:57.580Z,14.90
2018-08-30T20:58:26.237Z,14.90
2018-08-30T21:00:54.623Z,14.90
2018-08-30T21:03:23.687Z,14.80
2018-08-30T21:05:51.932Z,14.80
2018-08-30T21:08:20.874Z,14.80
2018-08-30T21:10:49.189Z,14.80
2018-08-30T21:13:18.582Z,14.90
2018-08-30T21:15:46.863Z,14.90
2018-08-30T21:18:15.170Z,14.80
2018-08-30T21:20:43.446Z,14.80
2018-08-30T21:23:11.826Z,14.80
2018-08-30T21:25:40.172Z,14.80
2018-08-30T21:28:08.556Z,14.70
2018-08-30T21:30:37.269Z,14.70
2018-08-30T21:33:05.752Z,14.70
2018-08-30T21:35:34.195Z,14.70
2018-08-30T21:38:02.518Z,14.80
2018-08-30T21:40:30.854Z,14.80
2018-08-30T21:42:59.409Z,14.90
2018-08-30T21:45:27.800Z,14.90
2018-08-30T21:47:55.988Z,14.90
2018-08-30T21:50:24.530Z,14.80
2018-08-30T21:52:55.001Z,14.80
2018-08-30T21:55:23.369Z,14.80
2018-08-30T21:57:51.909Z,14.80
2018-08-30T22:00:20.220Z,14.80
2018-08-30T22:02:48.705Z,14.70
2018-08-30T22:05:16.915Z,14.70
2018-08-30T22:07:45.206Z,14.60
2018-08-30T22:10:13.491Z,14.60
2018-08-30T22:12:41.787Z,14.60
2018-08-30T22:15:10.072Z,14.50
2018-08-30T22:17:38.402Z,14.50
2018-08-30T22:20:07.559Z,14.40
2018-08-30T22:22:35.783Z,14.40
2018-08-30T22:25:04.085Z,14.30
2018-08-30T22:27:32.512Z,14.20
2018-08-30T22:30:00.788Z,14.20
2018-08-30T22:32:29.035Z,14.10
2018-08-30T22:34:57.303Z,14.00
2018-08-30T22:37:26.154Z,13.90
2018-08-30T22:39:54.485Z,13.90
2018-08-30T22:42:22.795Z,13.80
2018-08-30T22:44:51.147Z,13.80
2018-08-30T22:47:19.429Z,13.70
2018-08-30T22:49:47.660Z,13.70
2018-08-30T22:52:15.966Z,13.70
2018-08-30T22:54:44.240Z,13.60
2018-08-30T22:57:12.480Z,13.60
2018-08-30T22:59:40.755Z,13.60
2018-08-30T23:02:08.972Z,13.50
2018-08-30T23:04:37.204Z,13.50
2018-08-30T23:07:05.654Z,13.40
2018-08-30T23:09:33.952Z,13.40
2018-08-30T23:12:02.197Z,13.40
2018-08-30T23:14:30.646Z,13.40
2018-08-30T23:16:59.417Z,13.40
2018-08-30T23:19:27.686Z,13.40
2018-08-30T23:21:55.948Z,13.40
2018-08-30T23:24:24.343Z,13.30
2018-08-30T23:26:52.728Z,13.40
2018-08-30T23:29:21.054Z,13.40
2018-08-30T23:31:49.458Z,13.40
2018-08-30T23:34:17.894Z,13.40
2018-08-30T23:36:46.126Z,13.40
2018-08-30T23:39:14.349Z,13.40
2018-08-30T23:41:42.554Z,13.30
2018-08-30T23:44:10.934Z,13.30
2018-08-30T23:46:39.306Z,13.30
2018-08-30T23:49:07.674Z,13.30
2018-08-30T23:51:35.998Z,13.30
2018-08-30T23:54:04.432Z,13.20
2018-08-30T23:56:33.222Z,13.20
2018-08-30T23:59:12.915Z,13.20
